Wetterstation Vordersexau
Wetterdaten: Oktober 2017
Datum Temp. A. Feuchte A. Luftdruck Regen Wind Richtung Taupunkt Windchill Windben
01.10.2017 14,3 C 73 % 1018,8 hPa 0,0 l/m 0,1 km/h W 9,3 C 14,3 C 0,1 km/h
02.10.2017 14,7 C 80 % 1016,8 hPa 0,0 l/m 6,2 km/h O-SO 11,2 C 13,5 C 3,5 km/h
03.10.2017 15,7 C 71 % 1018,1 hPa 19,7 l/m 3,3 km/h O-SO 10,1 C 15,2 C 1,8 km/h
04.10.2017 10,4 C 75 % 1022,7 hPa 0,0 l/m 0,4 km/h O-SO 5,9 C 10,3 C 0,2 km/h
05.10.2017 13,2 C 68 % 1015,8 hPa 5,2 l/m 8,1 km/h SW 6,7 C 12,0 C 4,5 km/h
06.10.2017 9,9 C 76 % 1019,1 hPa 0,5 l/m 1,0 km/h O-SO 5,9 C 9,8 C 0,6 km/h
07.10.2017 12,1 C 70 % 1020,7 hPa 0,0 l/m 4,1 km/h O-NO 6,4 C 11,4 C 2,3 km/h
08.10.2017 11,1 C 82 % 1017,0 hPa 5,7 l/m 4,3 km/h S 8,1 C 10,2 C 2,4 km/h
09.10.2017 11,8 C 78 % 1018,3 hPa 0,0 l/m 0,0 km/h O-SO 8,0 C 11,8 C 0,0 km/h
10.10.2017 11,2 C 76 % 1018,1 hPa 0,0 l/m 0,3 km/h O-SO 7,1 C 11,2 C 0,2 km/h
11.10.2017 15,0 C 70 % 1017,8 hPa 0,0 l/m 1,3 km/h O-SO 9,1 C 14,8 C 0,7 km/h
12.10.2017 14,4 C 75 % 1021,6 hPa 0,0 l/m 2,0 km/h W-SW 9,9 C 14,1 C 1,1 km/h
13.10.2017 15,3 C 69 % 1024,6 hPa 0,0 l/m 0,2 km/h O-SO 9,2 C 15,3 C 0,1 km/h
14.10.2017 15,1 C 71 % 1024,7 hPa 0,0 l/m 0,0 km/h O-SO 9,5 C 15,1 C 0,0 km/h
15.10.2017 16,2 C 67 % 1023,2 hPa 0,0 l/m 0,4 km/h O-SO 9,4 C 16,2 C 0,2 km/h
16.10.2017 16,9 C 68 % 1022,3 hPa 0,0 l/m 0,0 km/h O-NO 9,9 C 16,9 C 0,0 km/h
17.10.2017 15,7 C 64 % 1019,2 hPa 0,0 l/m 0,0 km/h O-NO 7,5 C 15,7 C 0,0 km/h
18.10.2017 15,0 C 64 % 1013,2 hPa 0,0 l/m 2,0 km/h O-SO 7,0 C 14,7 C 1,1 km/h
19.10.2017 14,3 C 70 % 1011,0 hPa 0,0 l/m 0,1 km/h O-SO 8,3 C 14,3 C 0,0 km/h
20.10.2017 14,8 C 73 % 1012,7 hPa 0,0 l/m 2,6 km/h O-SO 10,0 C 14,5 C 1,5 km/h
21.10.2017 16,1 C 74 % 1014,4 hPa 4,1 l/m 1,6 km/h S-SW 11,3 C 16,0 C 0,9 km/h
22.10.2017 11,0 C 75 % 1016,5 hPa 1,0 l/m 9,6 km/h SW 6,6 C 8,4 C 5,3 km/h
23.10.2017 9,5 C 80 % 1020,3 hPa 4,1 l/m 0,4 km/h S-SO 6,3 C 9,5 C 0,2 km/h
24.10.2017 13,4 C 74 % 1023,1 hPa 0,0 l/m 0,6 km/h O-SO 8,6 C 13,3 C 0,3 km/h
25.10.2017 13,8 C 75 % 1022,0 hPa 0,0 l/m 0,0 km/h O 9,3 C 13,8 C 0,0 km/h
26.10.2017 14,0 C 73 % 1022,5 hPa 0,0 l/m 0,0 km/h O 8,9 C 14,0 C 0,0 km/h
27.10.2017 11,6 C 74 % 1023,7 hPa 1,6 l/m 0,6 km/h O-SO 7,0 C 11,5 C 0,4 km/h
28.10.2017 7,7 C 75 % 1024,0 hPa 0,0 l/m 2,2 km/h O-SO 3,4 C 7,2 C 1,2 km/h
29.10.2017 8,5 C 79 % 1015,4 hPa 6,7 l/m 10,7 km/h S-SO 5,0 C 5,2 C 6,0 km/h
30.10.2017 6,0 C 72 % 1022,8 hPa 0,0 l/m 1,4 km/h N 1,1 C 5,6 C 0,8 km/h
31.10.2017 5,4 C 74 % 1024,2 hPa 0,5 l/m 0,0 km/h O 0,9 C 5,4 C 0,0 km/h
Min-Datum 31.10.17 17.10.17 19.10.17 10 Tage 01.10.17 - 31.10.17 31.10.17 01.10.17
Min-Zeit 07:53 16:53 16:53 - 00:53 - 07:53 07:53 00:53
Minimum -2,1 C 24 % 1009,3 hPa - 0,0 km/h - -4,6 C -2,1 C 0,0 km/h
Max-Datum 16.10.17 03.10.17 27.10.17 03.10.17 05.10.17 - 16.10.17 16.10.17 05.10.17
Max-Zeit 16:53 22:53 22:53 07:53 15:53 - 16:53 16:53 15:53
Maximum 36,6 C 84 % 1028,2 hPa 19,7 l/m 40,2 km/h
SW
- 17,2 C 36,6 C 22,3 km/h
SW
Durchschnitt 12,7 C 73 % 1019,5 hPa #49,2 l/m 2,1 km/h O-SO 7,6 C 12,3 C 1,1 km/h

Durchschnitt Minimum Temp.6,4 C
Durchschnitt Maximum Temp.22,6 C
www.sexauwetter.de